createdAt,value
2023-03-16T00:02:11.953Z,101654.63
2023-03-16T00:07:34.542Z,101653.41
2023-03-16T00:12:57.312Z,101646.41
2023-03-16T00:18:19.095Z,101644.06
2023-03-16T00:23:42.682Z,101637.31
2023-03-16T00:29:05.017Z,101632.22
2023-03-16T00:34:30.161Z,101622.47
2023-03-16T00:39:52.941Z,101625.94
2023-03-16T00:45:15.118Z,101609.75
2023-03-16T00:50:37.543Z,101617.44
2023-03-16T00:55:59.385Z,101607.69
2023-03-16T01:01:21.282Z,101614.50
2023-03-16T01:06:43.173Z,101602.81
2023-03-16T01:12:13.524Z,101595.59
2023-03-16T01:17:35.353Z,101596.28
2023-03-16T01:22:57.033Z,101580.94
2023-03-16T01:28:24.783Z,101583.09
2023-03-16T01:33:46.524Z,101579.72
2023-03-16T01:39:08.297Z,101558.84
2023-03-16T01:44:32.864Z,101549.06
2023-03-16T01:49:56.977Z,101558.47
2023-03-16T01:55:18.715Z,101542.91
2023-03-16T02:00:42.230Z,101546.13
2023-03-16T02:06:11.820Z,101537.25
2023-03-16T02:11:35.039Z,101542.16
2023-03-16T02:16:57.025Z,101526.59
2023-03-16T02:22:19.069Z,101527.69
2023-03-16T02:27:57.635Z,101523.22
2023-03-16T02:33:21.474Z,101522.59
2023-03-16T02:38:43.265Z,101514.75
2023-03-16T02:44:06.922Z,101512.22
2023-03-16T02:49:37.051Z,101507.53
2023-03-16T02:54:58.730Z,101506.03
2023-03-16T03:00:22.180Z,101500.75
2023-03-16T03:05:44.052Z,101497.56
2023-03-16T03:11:06.011Z,101488.41
2023-03-16T03:16:27.781Z,101492.25
2023-03-16T03:21:50.494Z,101481.66
2023-03-16T03:27:12.227Z,101477.19
2023-03-16T03:32:34.079Z,101479.94
2023-03-16T03:37:56.028Z,101475.69
2023-03-16T03:43:17.697Z,101463.78
2023-03-16T03:48:39.400Z,101468.69
2023-03-16T03:54:01.146Z,101452.31
2023-03-16T03:59:23.220Z,101452.53
2023-03-16T04:04:45.292Z,101440.84
2023-03-16T04:10:08.055Z,101431.94
2023-03-16T04:15:30.478Z,101425.53
2023-03-16T04:20:55.214Z,101428.56
2023-03-16T04:26:17.015Z,101426.00
2023-03-16T04:31:38.805Z,101419.63
2023-03-16T04:37:00.601Z,101421.78
2023-03-16T04:42:22.913Z,101405.41
2023-03-16T04:47:44.641Z,101406.47
2023-03-16T04:53:06.473Z,101406.69
2023-03-16T04:58:28.598Z,101395.03
2023-03-16T05:03:50.365Z,101394.41
2023-03-16T05:09:12.082Z,101395.47
2023-03-16T05:14:36.229Z,101397.63
2023-03-16T05:19:58.555Z,101394.03
2023-03-16T05:25:21.172Z,101383.16
2023-03-16T05:30:43.421Z,101382.53
2023-03-16T05:36:05.392Z,101374.25
2023-03-16T05:41:27.153Z,101364.28
2023-03-16T05:46:48.986Z,101363.66
2023-03-16T05:52:10.781Z,101376.00
2023-03-16T05:57:34.165Z,101353.03
2023-03-16T06:02:55.978Z,101365.19
2023-03-16T06:08:17.744Z,101371.63
2023-03-16T06:13:40.095Z,101347.44
2023-03-16T06:19:01.840Z,101354.00
2023-03-16T06:24:23.651Z,101346.56
2023-03-16T06:29:45.472Z,101329.66
2023-03-16T06:35:07.420Z,101326.88
2023-03-16T06:40:29.603Z,101326.78
2023-03-16T06:45:51.936Z,101344.63
2023-03-16T06:51:15.705Z,101344.13
2023-03-16T06:56:38.494Z,101343.06
2023-03-16T07:02:00.219Z,101338.06
2023-03-16T07:07:22.274Z,101333.13
2023-03-16T07:12:44.831Z,101336.25
2023-03-16T07:18:06.677Z,101344.91
2023-03-16T07:23:28.490Z,101349.34
2023-03-16T07:28:50.338Z,101337.28
2023-03-16T07:34:12.078Z,101330.97
2023-03-16T07:39:33.908Z,101340.88
2023-03-16T07:44:55.615Z,101347.34
2023-03-16T07:50:19.392Z,101349.72
2023-03-16T07:55:43.409Z,101343.56
2023-03-16T08:01:05.305Z,101350.81
2023-03-16T08:06:27.826Z,101348.47
2023-03-16T08:11:49.831Z,101350.47
2023-03-16T08:17:12.599Z,101358.25
2023-03-16T08:22:36.651Z,101351.72
2023-03-16T08:27:58.391Z,101339.00
2023-03-16T08:33:23.614Z,101339.25
2023-03-16T08:39:00.080Z,101349.53
2023-03-16T08:44:28.399Z,101342.13
2023-03-16T08:49:51.027Z,101326.09
2023-03-16T08:55:13.437Z,101319.56
2023-03-16T09:00:35.444Z,101320.97
2023-03-16T09:06:08.337Z,101326.94
2023-03-16T09:11:33.749Z,101334.81
2023-03-16T09:16:56.704Z,101331.59
2023-03-16T09:22:19.938Z,101326.44
2023-03-16T09:27:41.723Z,101314.63
2023-03-16T09:33:04.527Z,101318.59
2023-03-16T09:38:27.077Z,101307.03
2023-03-16T09:44:00.330Z,101312.47
2023-03-16T09:49:27.815Z,101307.91
2023-03-16T09:55:02.034Z,101304.41
2023-03-16T10:00:25.862Z,101292.59
2023-03-16T10:05:56.159Z,101292.75
2023-03-16T10:11:36.732Z,101299.03
2023-03-16T10:16:58.430Z,101303.34
2023-03-16T10:22:23.580Z,101300.59
2023-03-16T10:27:46.426Z,101290.56
2023-03-16T10:33:28.017Z,101281.16
2023-03-16T10:39:10.683Z,101272.22
2023-03-16T10:44:32.637Z,101263.56
2023-03-16T10:49:55.816Z,101267.66
2023-03-16T10:55:23.229Z,101253.19
2023-03-16T11:00:46.564Z,101238.13
2023-03-16T11:06:20.627Z,101232.81
2023-03-16T11:11:49.635Z,101240.19
2023-03-16T11:17:17.933Z,101229.56
2023-03-16T11:22:41.950Z,101219.56
2023-03-16T11:28:09.025Z,101209.53
2023-03-16T11:33:32.348Z,101198.94
2023-03-16T11:39:21.655Z,101183.97
2023-03-16T11:44:55.649Z,101182.28
2023-03-16T11:50:19.381Z,101182.78
2023-03-16T11:55:52.982Z,101186.28
2023-03-16T12:01:33.391Z,101184.25
2023-03-16T12:07:01.549Z,101183.03
2023-03-16T12:12:35.656Z,101164.97
2023-03-16T12:18:02.938Z,101152.41
2023-03-16T12:23:33.223Z,101136.03
2023-03-16T12:28:57.402Z,101127.34
2023-03-16T12:34:48.086Z,101125.91
2023-03-16T12:40:28.548Z,101106.13
2023-03-16T12:46:05.718Z,101083.63
2023-03-16T12:51:35.548Z,101086.63
2023-03-16T12:57:06.230Z,101076.84
2023-03-16T13:02:34.647Z,101066.03
2023-03-16T13:08:16.005Z,101059.66
2023-03-16T13:14:13.226Z,101044.59
2023-03-16T13:19:38.042Z,101043.38
2023-03-16T13:25:38.470Z,101040.38
2023-03-16T13:31:01.275Z,101040.88
2023-03-16T13:36:25.702Z,101035.31
2023-03-16T13:42:08.276Z,101025.94
2023-03-16T13:47:30.049Z,101024.72
2023-03-16T13:53:02.959Z,101008.69
2023-03-16T13:58:33.670Z,101005.31
2023-03-16T14:04:00.408Z,100982.81
2023-03-16T14:09:26.176Z,100979.22
2023-03-16T14:14:54.863Z,100976.66
2023-03-16T14:20:26.086Z,100969.69
2023-03-16T14:25:49.773Z,100967.13
2023-03-16T14:31:13.547Z,100955.50
2023-03-16T14:36:37.612Z,100948.25
2023-03-16T14:42:03.368Z,100957.25
2023-03-16T14:47:29.514Z,100941.22
2023-03-16T14:52:54.274Z,100953.16
2023-03-16T14:58:15.956Z,100949.53
2023-03-16T15:03:38.162Z,100936.16
2023-03-16T15:09:00.729Z,100924.50
2023-03-16T15:14:40.769Z,100915.81
2023-03-16T15:20:03.667Z,100908.00
2023-03-16T15:25:39.449Z,100902.69
2023-03-16T15:31:03.384Z,100897.69
2023-03-16T15:36:26.045Z,100892.13
2023-03-16T15:41:48.279Z,100887.06
2023-03-16T15:47:11.028Z,100890.94
2023-03-16T15:52:36.944Z,100876.47
2023-03-16T15:58:00.465Z,100886.97
2023-03-16T16:03:22.363Z,100879.75
2023-03-16T16:08:44.388Z,100883.03
2023-03-16T16:14:06.339Z,100875.88
2023-03-16T16:19:28.542Z,100869.97
2023-03-16T16:24:50.250Z,100871.31
2023-03-16T16:30:22.698Z,100869.91
2023-03-16T16:35:45.420Z,100860.09
2023-03-16T16:41:09.756Z,100856.22
2023-03-16T16:46:35.845Z,100862.06
2023-03-16T16:51:58.856Z,100865.78
2023-03-16T16:57:21.129Z,100868.41
2023-03-16T17:02:46.481Z,100863.44
2023-03-16T17:08:11.679Z,100859.00
2023-03-16T17:13:39.222Z,100853.69
2023-03-16T17:19:01.515Z,100850.59
2023-03-16T17:24:24.521Z,100849.97
2023-03-16T17:29:46.267Z,100849.66
2023-03-16T17:35:15.562Z,100844.44
2023-03-16T17:40:37.560Z,100852.19
2023-03-16T17:46:01.227Z,100838.91
2023-03-16T17:51:25.737Z,100839.44
2023-03-16T17:56:54.371Z,100824.09
2023-03-16T18:02:46.474Z,100841.16
2023-03-16T18:08:14.171Z,100846.72
2023-03-16T18:13:38.087Z,100844.53
2023-03-16T18:19:23.933Z,100849.56
2023-03-16T18:24:46.834Z,100845.78
2023-03-16T18:30:09.747Z,100840.63
2023-03-16T18:35:32.206Z,100848.78
2023-03-16T18:40:54.115Z,100834.91
2023-03-16T18:46:26.580Z,100818.84
2023-03-16T18:51:53.650Z,100822.72
2023-03-16T18:57:21.633Z,100814.66
2023-03-16T19:02:44.815Z,100820.00
2023-03-16T19:08:06.980Z,100816.44
2023-03-16T19:13:28.913Z,100808.69
2023-03-16T19:18:50.886Z,100804.47
2023-03-16T19:24:24.308Z,100803.34
2023-03-16T19:29:46.180Z,100806.56
2023-03-16T19:35:16.696Z,100793.72
2023-03-16T19:40:38.544Z,100790.56
2023-03-16T19:46:00.465Z,100794.38
2023-03-16T19:51:22.728Z,100785.38
2023-03-16T19:56:45.371Z,100789.50
2023-03-16T20:02:22.655Z,100783.25
2023-03-16T20:07:45.360Z,100782.72
2023-03-16T20:13:10.747Z,100755.91
2023-03-16T20:18:33.070Z,100754.63
2023-03-16T20:23:54.962Z,100753.44
2023-03-16T20:29:23.740Z,100750.53
2023-03-16T20:34:46.561Z,100749.22
2023-03-16T20:40:09.961Z,100742.28
2023-03-16T20:45:32.112Z,100747.28
2023-03-16T20:50:56.266Z,100751.72
2023-03-16T20:56:21.455Z,100744.97
2023-03-16T21:01:45.992Z,100724.34
2023-03-16T21:07:09.161Z,100726.50
2023-03-16T21:12:35.892Z,100725.88
2023-03-16T21:18:02.849Z,100735.53
2023-03-16T21:23:24.561Z,100727.41
2023-03-16T21:28:57.887Z,100718.41
2023-03-16T21:34:26.072Z,100688.28
2023-03-16T21:39:48.386Z,100692.34
2023-03-16T21:45:10.968Z,100680.31
2023-03-16T21:50:35.515Z,100689.66
2023-03-16T21:55:57.647Z,100722.91
2023-03-16T22:01:29.134Z,100714.22
2023-03-16T22:06:50.918Z,100714.09
2023-03-16T22:12:13.784Z,100707.13
2023-03-16T22:17:36.762Z,100713.69
2023-03-16T22:22:58.826Z,100711.97
2023-03-16T22:28:20.680Z,100710.47
2023-03-16T22:33:43.885Z,100705.38
2023-03-16T22:39:12.469Z,100677.81
2023-03-16T22:44:34.196Z,100671.13
2023-03-16T22:49:56.116Z,100671.06
2023-03-16T22:55:22.416Z,100677.66
2023-03-16T23:00:45.572Z,100680.34
2023-03-16T23:06:10.865Z,100674.72
2023-03-16T23:11:35.984Z,100661.41
2023-03-16T23:16:57.957Z,100666.88
2023-03-16T23:22:19.773Z,100662.69
2023-03-16T23:27:41.992Z,100662.38
2023-03-16T23:33:03.884Z,100671.22
2023-03-16T23:38:26.182Z,100680.88
2023-03-16T23:43:48.970Z,100687.78
2023-03-16T23:49:18.450Z,100688.31
2023-03-16T23:54:40.200Z,100678.81
